createdAt,value
2023-05-14T00:02:07.078Z,9.40
2023-05-14T00:04:42.846Z,12.00
2023-05-14T00:07:12.109Z,10.00
2023-05-14T00:09:53.036Z,16.00
2023-05-14T00:12:27.065Z,9.80
2023-05-14T00:14:57.401Z,12.60
2023-05-14T00:17:27.078Z,12.20
2023-05-14T00:19:57.169Z,13.00
2023-05-14T00:22:27.355Z,9.00
2023-05-14T00:24:56.512Z,12.20
2023-05-14T00:27:29.551Z,10.00
2023-05-14T00:30:03.203Z,12.00
2023-05-14T00:32:35.132Z,9.40
2023-05-14T00:35:08.645Z,12.00
2023-05-14T00:37:40.646Z,10.00
2023-05-14T00:40:13.298Z,9.00
2023-05-14T00:42:45.498Z,10.00
2023-05-14T00:45:18.361Z,9.20
2023-05-14T00:47:56.937Z,11.60
2023-05-14T00:50:28.359Z,12.20
2023-05-14T00:52:57.463Z,10.80
2023-05-14T00:55:33.231Z,10.00
2023-05-14T00:58:19.718Z,9.00
2023-05-14T01:00:50.418Z,9.40
2023-05-14T01:03:20.837Z,12.80
2023-05-14T01:05:55.718Z,9.00
2023-05-14T01:08:40.476Z,10.00
2023-05-14T01:11:19.320Z,7.00
2023-05-14T01:13:51.596Z,11.60
2023-05-14T01:16:24.709Z,10.00
2023-05-14T01:18:56.661Z,10.80
2023-05-14T01:21:39.229Z,12.40
2023-05-14T01:24:11.675Z,6.80
2023-05-14T01:26:43.512Z,11.60
2023-05-14T01:29:18.920Z,12.40
2023-05-14T01:31:55.561Z,13.40
2023-05-14T01:34:25.441Z,12.40
2023-05-14T01:37:17.116Z,12.60
2023-05-14T01:39:50.627Z,12.00
2023-05-14T01:42:24.657Z,12.60
2023-05-14T01:44:53.652Z,12.80
2023-05-14T01:47:24.037Z,12.80
2023-05-14T01:49:57.944Z,12.20
2023-05-14T01:52:30.291Z,12.00
2023-05-14T01:55:03.966Z,12.40
2023-05-14T01:57:35.270Z,10.80
2023-05-14T02:00:05.288Z,13.80
2023-05-14T02:02:37.048Z,9.00
2023-05-14T02:05:13.552Z,10.40
2023-05-14T02:07:48.917Z,10.20
2023-05-14T02:10:21.015Z,11.20
2023-05-14T02:13:06.895Z,10.00
2023-05-14T02:15:39.137Z,11.20
2023-05-14T02:18:09.813Z,9.80
2023-05-14T02:20:38.995Z,11.60
2023-05-14T02:23:11.088Z,9.20
2023-05-14T02:25:45.041Z,7.00
2023-05-14T02:28:17.573Z,10.40
2023-05-14T02:30:46.764Z,7.00
2023-05-14T02:33:23.228Z,12.20
2023-05-14T02:35:52.431Z,9.00
2023-05-14T02:38:23.054Z,9.60
2023-05-14T02:40:52.207Z,9.20
2023-05-14T02:43:21.666Z,8.60
2023-05-14T02:45:50.774Z,7.00
2023-05-14T02:48:19.931Z,11.20
2023-05-14T02:50:56.612Z,9.00
2023-05-14T02:53:37.295Z,6.00
2023-05-14T02:56:08.973Z,7.40
2023-05-14T02:58:39.908Z,9.20
2023-05-14T03:01:12.127Z,7.80
2023-05-14T03:03:46.476Z,11.20
2023-05-14T03:06:19.017Z,9.20
2023-05-14T03:08:50.640Z,10.00
2023-05-14T03:11:23.902Z,8.20
2023-05-14T03:13:55.742Z,10.40
2023-05-14T03:16:29.370Z,10.40
2023-05-14T03:18:58.596Z,6.80
2023-05-14T03:21:35.582Z,9.20
2023-05-14T03:24:12.539Z,9.40
2023-05-14T03:26:42.019Z,9.20
2023-05-14T03:29:20.429Z,8.20
2023-05-14T03:31:51.473Z,6.00
2023-05-14T03:34:23.956Z,7.00
2023-05-14T03:36:54.685Z,9.20
2023-05-14T03:39:33.174Z,8.60
2023-05-14T03:42:14.063Z,10.40
2023-05-14T03:44:45.640Z,11.20
2023-05-14T03:47:19.786Z,9.00
2023-05-14T03:49:49.376Z,10.40
2023-05-14T03:52:18.885Z,7.80
2023-05-14T03:54:49.815Z,7.00
2023-05-14T03:57:18.962Z,9.00
2023-05-14T03:59:50.566Z,10.00
2023-05-14T04:02:21.459Z,9.80
2023-05-14T04:04:52.950Z,10.00
2023-05-14T04:07:28.117Z,7.80
2023-05-14T04:10:01.141Z,10.00
2023-05-14T04:12:31.991Z,7.80
2023-05-14T04:15:05.877Z,11.20
2023-05-14T04:17:37.741Z,10.60
2023-05-14T04:20:10.637Z,9.40
2023-05-14T04:22:42.489Z,7.80
2023-05-14T04:25:15.636Z,9.00
2023-05-14T04:27:52.719Z,10.80
2023-05-14T04:30:25.023Z,7.40
2023-05-14T04:32:55.817Z,8.60
2023-05-14T04:35:25.290Z,8.20
2023-05-14T04:38:01.017Z,12.00
2023-05-14T04:40:31.965Z,9.80
2023-05-14T04:43:01.304Z,10.00
2023-05-14T04:45:34.267Z,9.00
2023-05-14T04:48:08.037Z,9.60
2023-05-14T04:50:46.845Z,10.00
2023-05-14T04:53:16.218Z,11.20
2023-05-14T04:55:47.161Z,10.00
2023-05-14T04:58:16.548Z,9.40
2023-05-14T05:00:50.883Z,13.80
2023-05-14T05:03:29.226Z,12.00
2023-05-14T05:06:03.342Z,13.00
2023-05-14T05:08:35.620Z,7.00
2023-05-14T05:11:10.269Z,11.20
2023-05-14T05:13:57.072Z,9.60
2023-05-14T05:16:26.096Z,9.60
2023-05-14T05:18:55.569Z,10.00
2023-05-14T05:21:27.285Z,12.00
2023-05-14T05:23:58.242Z,9.80
2023-05-14T05:26:30.567Z,9.60
2023-05-14T05:29:05.066Z,9.00
2023-05-14T05:31:44.731Z,7.00
2023-05-14T05:34:19.484Z,9.20
2023-05-14T05:36:51.520Z,7.00
2023-05-14T05:39:22.683Z,8.20
2023-05-14T05:41:53.329Z,10.00
2023-05-14T05:44:23.625Z,7.40
2023-05-14T05:47:00.871Z,7.80
2023-05-14T05:49:34.902Z,9.00
2023-05-14T05:52:09.295Z,6.00
2023-05-14T05:54:43.681Z,8.50
2023-05-14T05:57:27.689Z,7.00
2023-05-14T05:59:59.695Z,9.50
2023-05-14T06:02:28.932Z,6.50
2023-05-14T06:04:58.812Z,6.75
2023-05-14T06:07:32.853Z,10.00
2023-05-14T06:10:02.394Z,9.00
2023-05-14T06:12:33.383Z,10.00
2023-05-14T06:15:05.931Z,9.00
2023-05-14T06:17:36.919Z,9.00
2023-05-14T06:20:08.247Z,11.00
2023-05-14T06:22:41.961Z,7.00
2023-05-14T06:25:20.453Z,10.40
2023-05-14T06:27:57.572Z,10.00
2023-05-14T06:30:29.165Z,10.50
2023-05-14T06:33:02.155Z,9.75
2023-05-14T06:35:33.211Z,9.60
2023-05-14T06:38:06.718Z,9.80
2023-05-14T06:40:40.913Z,12.00
2023-05-14T06:43:18.862Z,10.50
2023-05-14T06:45:50.857Z,10.00
2023-05-14T06:48:23.592Z,11.60
2023-05-14T06:50:53.143Z,12.50
2023-05-14T06:53:29.394Z,12.00
2023-05-14T06:56:00.280Z,9.50
2023-05-14T06:58:37.157Z,11.00
2023-05-14T07:01:09.490Z,9.50
2023-05-14T07:03:43.913Z,7.00
2023-05-14T07:06:22.190Z,8.50
2023-05-14T07:08:55.489Z,9.00
2023-05-14T07:11:26.467Z,10.00
2023-05-14T07:14:01.704Z,5.50
2023-05-14T07:16:33.116Z,9.00
2023-05-14T07:19:04.380Z,1.00
2023-05-14T07:21:34.178Z,7.50
2023-05-14T07:24:08.865Z,6.00
2023-05-14T07:26:38.473Z,6.00
2023-05-14T07:29:09.138Z,6.00
2023-05-14T07:31:45.078Z,5.00
2023-05-14T07:34:16.717Z,4.50
2023-05-14T07:36:54.236Z,5.00
2023-05-14T07:39:30.583Z,3.50
2023-05-14T07:42:05.822Z,6.00
2023-05-14T07:44:45.312Z,4.00
2023-05-14T07:47:24.851Z,6.00
2023-05-14T07:50:05.207Z,6.25
2023-05-14T07:52:53.732Z,6.00
2023-05-14T07:55:31.435Z,4.00
2023-05-14T07:58:02.309Z,6.00
2023-05-14T08:00:34.254Z,6.00
2023-05-14T08:03:05.941Z,6.00
2023-05-14T08:05:42.582Z,5.25
2023-05-14T08:08:17.273Z,6.25
2023-05-14T08:10:52.887Z,7.00
2023-05-14T08:13:30.973Z,8.75
2023-05-14T08:16:13.084Z,5.00
2023-05-14T08:18:50.350Z,6.00
2023-05-14T08:21:21.135Z,4.00
2023-05-14T08:23:56.122Z,6.75
2023-05-14T08:26:29.357Z,4.00
2023-05-14T08:29:03.718Z,4.50
2023-05-14T08:31:36.851Z,7.00
2023-05-14T08:34:12.769Z,4.00
2023-05-14T08:36:50.175Z,5.25
2023-05-14T08:39:23.074Z,3.75
2023-05-14T08:42:00.212Z,4.00
2023-05-14T08:44:39.654Z,1.75
2023-05-14T08:47:12.186Z,4.00
2023-05-14T08:49:50.359Z,4.25
2023-05-14T08:52:24.583Z,4.00
2023-05-14T08:54:55.915Z,4.25
2023-05-14T08:57:27.352Z,5.00
2023-05-14T08:59:58.531Z,5.00
2023-05-14T09:02:35.910Z,4.00
2023-05-14T09:05:10.666Z,5.00
2023-05-14T09:07:45.028Z,4.00
2023-05-14T09:10:16.016Z,5.00
2023-05-14T09:12:51.424Z,4.50
2023-05-14T09:15:27.204Z,3.00
2023-05-14T09:18:00.007Z,5.00
2023-05-14T09:20:29.720Z,5.50
2023-05-14T09:23:02.096Z,7.00
2023-05-14T09:25:35.447Z,5.00
2023-05-14T09:28:10.461Z,7.00
2023-05-14T09:30:40.116Z,7.00
2023-05-14T09:33:22.635Z,4.00
2023-05-14T09:35:53.568Z,5.00
2023-05-14T09:38:38.489Z,4.00
2023-05-14T09:41:24.694Z,6.50
2023-05-14T09:43:57.643Z,6.00
2023-05-14T09:46:32.282Z,7.00
2023-05-14T09:49:02.626Z,7.00
2023-05-14T09:51:33.379Z,7.00
2023-05-14T09:54:03.058Z,7.75
2023-05-14T09:56:39.272Z,7.00
2023-05-14T09:59:15.763Z,4.50
2023-05-14T10:01:51.082Z,7.00
2023-05-14T10:04:21.815Z,5.50
2023-05-14T10:06:52.155Z,5.00
2023-05-14T10:09:28.588Z,7.25
2023-05-14T10:12:00.769Z,5.50
2023-05-14T10:14:38.076Z,5.00
2023-05-14T10:17:18.874Z,7.00
2023-05-14T10:20:19.079Z,6.25
2023-05-14T10:22:49.761Z,6.25
2023-05-14T10:25:32.242Z,7.75
2023-05-14T10:28:07.336Z,7.00
2023-05-14T10:30:41.456Z,5.00
2023-05-14T10:33:22.642Z,6.25
2023-05-14T10:36:11.635Z,6.00
2023-05-14T10:38:45.444Z,6.00
2023-05-14T10:41:22.157Z,6.50
2023-05-14T10:44:04.428Z,7.00
2023-05-14T10:46:39.241Z,6.50
2023-05-14T10:49:10.737Z,3.50
2023-05-14T10:51:44.298Z,6.25
2023-05-14T10:54:16.917Z,7.25
2023-05-14T10:56:51.181Z,4.00
2023-05-14T10:59:23.171Z,7.50
2023-05-14T11:04:48.357Z,7.00
2023-05-14T11:07:19.684Z,7.00
2023-05-14T11:09:50.203Z,6.25
2023-05-14T11:12:21.634Z,7.00
2023-05-14T11:15:01.202Z,7.00
2023-05-14T11:17:39.277Z,5.00
2023-05-14T11:20:17.529Z,7.50
2023-05-14T11:22:57.551Z,7.00
2023-05-14T11:25:30.002Z,7.25
2023-05-14T11:28:03.298Z,6.25
2023-05-14T11:30:42.498Z,7.75
2023-05-14T11:33:13.761Z,7.50
2023-05-14T11:35:45.870Z,5.00
2023-05-14T11:38:18.315Z,8.00
2023-05-14T11:40:58.141Z,6.00
2023-05-14T11:43:32.006Z,7.00
2023-05-14T11:46:01.426Z,7.00
2023-05-14T11:48:40.543Z,5.25
2023-05-14T11:51:10.960Z,5.75
2023-05-14T11:53:55.034Z,8.00
2023-05-14T11:56:36.724Z,7.00
2023-05-14T11:59:08.014Z,6.25
2023-05-14T12:01:48.547Z,6.00
2023-05-14T12:04:27.406Z,4.25
2023-05-14T12:06:58.851Z,6.00
2023-05-14T12:09:30.035Z,5.50
2023-05-14T12:12:05.540Z,8.00
2023-05-14T12:14:38.637Z,6.25
2023-05-14T12:17:20.933Z,5.00
2023-05-14T12:20:00.197Z,5.25
2023-05-14T12:22:33.549Z,5.50
2023-05-14T12:25:05.879Z,8.00
2023-05-14T12:27:41.332Z,4.00
2023-05-14T12:32:52.101Z,5.00
2023-05-14T12:35:27.962Z,5.25
2023-05-14T12:38:06.837Z,6.25
2023-05-14T12:40:44.576Z,6.50
2023-05-14T12:43:19.995Z,5.75
2023-05-14T12:45:51.581Z,6.00
2023-05-14T12:48:23.287Z,6.00
2023-05-14T12:50:57.036Z,6.00
2023-05-14T12:53:30.013Z,6.00
2023-05-14T12:56:02.810Z,8.00
2023-05-14T12:58:32.548Z,5.50
2023-05-14T13:01:05.438Z,7.00
2023-05-14T13:03:35.346Z,8.00
2023-05-14T13:06:09.504Z,6.00
2023-05-14T13:08:42.559Z,5.75
2023-05-14T13:11:19.126Z,6.00
2023-05-14T13:14:00.809Z,6.00
2023-05-14T13:16:31.815Z,6.00
2023-05-14T13:19:05.691Z,5.00
2023-05-14T13:21:37.765Z,5.25
2023-05-14T13:24:17.068Z,5.50
2023-05-14T13:26:51.797Z,4.25
2023-05-14T13:29:23.370Z,4.25
2023-05-14T13:31:55.228Z,4.75
2023-05-14T13:34:28.539Z,4.00
2023-05-14T13:36:59.735Z,2.00
2023-05-14T13:39:31.789Z,4.25
2023-05-14T13:42:05.439Z,5.00
2023-05-14T13:44:41.551Z,4.25
2023-05-14T13:47:23.047Z,4.00
2023-05-14T13:50:18.905Z,5.00
2023-05-14T13:52:55.654Z,3.50
2023-05-14T13:55:27.687Z,4.00
2023-05-14T13:58:12.068Z,4.00
2023-05-14T14:00:48.168Z,4.00
2023-05-14T14:03:19.494Z,4.00
2023-05-14T14:05:51.307Z,5.25
2023-05-14T14:08:26.691Z,4.75
2023-05-14T14:11:07.780Z,5.00
2023-05-14T14:13:40.666Z,4.00
2023-05-14T14:16:10.915Z,5.00
2023-05-14T14:18:44.906Z,4.00
2023-05-14T14:21:16.059Z,3.75
2023-05-14T14:23:52.024Z,3.25
2023-05-14T14:26:25.384Z,1.75
2023-05-14T14:28:59.230Z,4.25
2023-05-14T14:31:30.041Z,4.00
2023-05-14T14:34:05.909Z,3.75
2023-05-14T14:36:39.018Z,3.50
2023-05-14T14:39:09.233Z,2.00
2023-05-14T14:41:53.824Z,4.00
2023-05-14T14:44:27.430Z,4.00
2023-05-14T14:46:57.759Z,4.00
2023-05-14T14:52:23.482Z,2.00
2023-05-14T14:54:54.443Z,3.50
2023-05-14T14:57:23.895Z,4.00
2023-05-14T15:00:02.151Z,4.00
2023-05-14T15:02:38.786Z,4.00
2023-05-14T15:05:17.180Z,2.50
2023-05-14T15:07:48.636Z,2.50
2023-05-14T15:10:28.489Z,4.00
2023-05-14T15:12:59.691Z,4.00
2023-05-14T15:15:39.704Z,4.00
2023-05-14T15:18:15.591Z,4.00
2023-05-14T15:20:51.918Z,4.25
2023-05-14T15:23:24.789Z,2.50
2023-05-14T15:25:57.827Z,2.00
2023-05-14T15:28:30.137Z,1.50
2023-05-14T15:31:07.369Z,4.00
2023-05-14T15:33:39.072Z,2.00
2023-05-14T15:36:12.898Z,2.50
2023-05-14T15:38:48.151Z,2.00
2023-05-14T15:41:34.194Z,4.00
2023-05-14T15:44:07.747Z,2.00
2023-05-14T15:46:57.426Z,0.75
2023-05-14T15:52:35.957Z,3.80
2023-05-14T15:55:09.136Z,3.80
2023-05-14T15:57:39.751Z,2.00
2023-05-14T16:00:15.485Z,2.00
2023-05-14T16:02:50.269Z,4.00
2023-05-14T16:05:23.591Z,2.00
2023-05-14T16:07:53.231Z,3.40
2023-05-14T16:10:27.213Z,4.00
2023-05-14T16:12:59.052Z,2.00
2023-05-14T16:15:35.564Z,2.50
2023-05-14T16:18:12.876Z,2.00
2023-05-14T16:20:42.890Z,2.00
2023-05-14T16:23:18.474Z,2.00
2023-05-14T16:25:48.897Z,2.00
2023-05-14T16:28:29.022Z,4.00
2023-05-14T16:31:00.853Z,2.00
2023-05-14T16:33:43.615Z,3.00
2023-05-14T16:36:12.896Z,2.00
2023-05-14T16:39:06.795Z,1.00
2023-05-14T16:41:46.225Z,2.00
2023-05-14T16:44:16.931Z,1.50
2023-05-14T16:46:54.615Z,2.00
2023-05-14T16:49:34.166Z,3.00
2023-05-14T16:52:03.387Z,2.00
2023-05-14T16:54:45.050Z,2.00
2023-05-14T16:57:17.583Z,4.00
2023-05-14T16:59:46.795Z,4.00
2023-05-14T17:02:18.942Z,3.00
2023-05-14T17:04:54.868Z,1.00
2023-05-14T17:07:31.301Z,3.00
2023-05-14T17:10:04.833Z,4.25
2023-05-14T17:12:37.865Z,4.00
2023-05-14T17:15:12.522Z,4.00
2023-05-14T17:17:49.422Z,2.00
2023-05-14T17:20:21.421Z,2.50
2023-05-14T17:22:53.254Z,1.00
2023-05-14T17:25:24.150Z,3.50
2023-05-14T17:27:55.558Z,4.00
2023-05-14T17:30:25.014Z,2.50
2023-05-14T17:32:54.960Z,4.75
2023-05-14T17:35:31.033Z,5.00
2023-05-14T17:38:07.126Z,5.00
2023-05-14T17:40:41.272Z,4.00
2023-05-14T17:43:19.438Z,4.50
2023-05-14T17:45:54.427Z,4.50
2023-05-14T17:48:24.390Z,4.25
2023-05-14T17:50:58.766Z,3.00
2023-05-14T17:53:34.793Z,4.50
2023-05-14T17:56:12.219Z,2.25
2023-05-14T17:58:46.642Z,4.00
2023-05-14T18:01:21.610Z,5.00
2023-05-14T18:03:54.915Z,4.00
2023-05-14T18:06:30.022Z,4.00
2023-05-14T18:09:12.292Z,4.75
2023-05-14T18:11:46.770Z,4.25
2023-05-14T18:14:36.026Z,4.00
2023-05-14T18:17:14.697Z,5.50
2023-05-14T18:19:49.351Z,3.00
2023-05-14T18:22:24.656Z,5.75
2023-05-14T18:25:04.329Z,3.00
2023-05-14T18:27:47.338Z,3.25
2023-05-14T18:30:27.056Z,4.00
2023-05-14T18:32:59.315Z,3.25
2023-05-14T18:35:39.129Z,3.00
2023-05-14T18:38:18.169Z,3.75
2023-05-14T18:40:49.791Z,3.75
2023-05-14T18:43:36.166Z,1.00
2023-05-14T18:46:09.655Z,1.75
2023-05-14T18:48:51.067Z,3.75
2023-05-14T18:51:23.574Z,3.00
2023-05-14T18:53:59.823Z,3.00
2023-05-14T18:56:34.163Z,4.00
2023-05-14T18:59:07.965Z,3.00
2023-05-14T19:01:41.088Z,4.00
2023-05-14T19:04:26.604Z,4.00
2023-05-14T19:07:01.443Z,3.50
2023-05-14T19:09:41.937Z,3.75
2023-05-14T19:12:13.684Z,4.00
2023-05-14T19:14:51.956Z,5.00
2023-05-14T19:17:25.049Z,4.50
2023-05-14T19:20:00.719Z,4.00
2023-05-14T19:22:37.989Z,4.50
2023-05-14T19:25:16.106Z,3.25
2023-05-14T19:27:51.641Z,3.00
2023-05-14T19:30:25.067Z,4.00
2023-05-14T19:33:01.145Z,4.00
2023-05-14T19:35:36.784Z,5.00
2023-05-14T19:38:09.561Z,9.00
2023-05-14T19:40:46.557Z,4.00
2023-05-14T19:43:23.027Z,3.00
2023-05-14T19:45:52.642Z,3.25
2023-05-14T19:48:33.812Z,4.00
2023-05-14T19:51:16.721Z,3.75
2023-05-14T19:53:50.316Z,3.25
2023-05-14T19:56:27.230Z,4.00
2023-05-14T19:59:04.884Z,3.50
2023-05-14T20:01:43.579Z,4.00
2023-05-14T20:04:18.202Z,4.00
2023-05-14T20:06:57.562Z,4.50
2023-05-14T20:09:27.512Z,4.00
2023-05-14T20:12:00.996Z,4.00
2023-05-14T20:14:37.066Z,4.00
2023-05-14T20:17:06.881Z,4.00
2023-05-14T20:19:37.827Z,6.00
2023-05-14T20:22:11.067Z,4.00
2023-05-14T20:24:48.875Z,6.00
2023-05-14T20:27:23.150Z,4.00
2023-05-14T20:29:54.423Z,6.50
2023-05-14T20:32:26.364Z,1.50
2023-05-14T20:35:02.334Z,3.00
2023-05-14T20:37:34.729Z,6.00
2023-05-14T20:40:10.797Z,6.00
2023-05-14T20:42:55.968Z,5.00
2023-05-14T20:45:30.929Z,5.00
2023-05-14T20:48:04.058Z,7.00
2023-05-14T20:50:34.729Z,6.25
2023-05-14T20:53:03.928Z,6.00
2023-05-14T20:55:35.185Z,6.00
2023-05-14T20:58:15.610Z,5.50
2023-05-14T21:00:56.299Z,7.00
2023-05-14T21:03:31.472Z,6.00
2023-05-14T21:06:05.183Z,6.50
2023-05-14T21:08:35.963Z,2.50
2023-05-14T21:11:13.534Z,6.75
2023-05-14T21:13:44.984Z,7.00
2023-05-14T21:16:15.553Z,6.50
2023-05-14T21:18:50.384Z,6.50
2023-05-14T21:21:21.930Z,6.00
2023-05-14T21:23:51.573Z,5.00
2023-05-14T21:26:22.210Z,4.00
2023-05-14T21:28:57.970Z,5.00
2023-05-14T21:31:31.023Z,6.00
2023-05-14T21:34:15.027Z,6.00
2023-05-14T21:36:44.599Z,7.00
2023-05-14T21:39:15.564Z,6.00
2023-05-14T21:41:53.298Z,8.50
2023-05-14T21:44:25.249Z,8.00
2023-05-14T21:46:55.056Z,6.00
2023-05-14T21:49:27.113Z,6.00
2023-05-14T21:51:56.537Z,7.00
2023-05-14T21:54:29.778Z,3.50
2023-05-14T21:57:03.252Z,7.00
2023-05-14T21:59:35.183Z,6.50
2023-05-14T22:02:07.931Z,6.25
2023-05-14T22:04:42.846Z,6.25
2023-05-14T22:07:18.451Z,8.00
2023-05-14T22:09:52.752Z,4.00
2023-05-14T22:12:23.662Z,6.25
2023-05-14T22:15:05.440Z,3.25
2023-05-14T22:17:36.636Z,4.00
2023-05-14T22:20:08.213Z,7.00
2023-05-14T22:22:42.931Z,6.00
2023-05-14T22:25:29.693Z,6.00
2023-05-14T22:28:02.460Z,3.50
2023-05-14T22:30:39.749Z,6.00
2023-05-14T22:33:22.164Z,7.00
2023-05-14T22:35:51.783Z,6.50
2023-05-14T22:38:32.010Z,7.00
2023-05-14T22:41:32.039Z,6.50
2023-05-14T22:44:03.947Z,6.50
2023-05-14T22:46:39.448Z,7.00
2023-05-14T22:49:17.701Z,9.00
2023-05-14T22:51:49.120Z,8.50
2023-05-14T22:54:20.188Z,8.00
2023-05-14T22:56:56.013Z,8.00
2023-05-14T22:59:29.094Z,7.50
2023-05-14T23:01:59.795Z,6.80
2023-05-14T23:04:38.603Z,7.00
2023-05-14T23:10:07.756Z,6.25
2023-05-14T23:12:44.903Z,9.40
2023-05-14T23:15:19.768Z,6.20
2023-05-14T23:17:58.765Z,9.00
2023-05-14T23:20:29.965Z,6.40
2023-05-14T23:22:59.133Z,6.80
2023-05-14T23:25:35.550Z,9.00
2023-05-14T23:28:08.001Z,4.00
2023-05-14T23:30:42.874Z,6.00
2023-05-14T23:33:17.463Z,6.00
2023-05-14T23:35:52.480Z,6.20
2023-05-14T23:38:29.663Z,7.00
2023-05-14T23:41:02.448Z,6.20
2023-05-14T23:43:39.438Z,7.00
2023-05-14T23:46:18.717Z,7.00
2023-05-14T23:48:49.627Z,5.20
2023-05-14T23:51:21.230Z,6.60
2023-05-14T23:53:56.692Z,8.20
2023-05-14T23:56:28.596Z,6.20
2023-05-14T23:58:58.978Z,6.60
